sensor_id;sensor_type;location;lat;lon;timestamp;pressure;altitude;pressure_sealevel;temperature
65316;BMP280;51920;53.952;10.292;2023-08-12T00:01:18;101362.69;;;20.45
65316;BMP280;51920;53.952;10.292;2023-08-12T00:03:47;101345.72;;;20.34
65316;BMP280;51920;53.952;10.292;2023-08-12T00:06:14;101355.31;;;20.42
65316;BMP280;51920;53.952;10.292;2023-08-12T00:08:41;101353.50;;;20.35
65316;BMP280;51920;53.952;10.292;2023-08-12T00:11:08;101336.44;;;20.28
65316;BMP280;51920;53.952;10.292;2023-08-12T00:13:34;101345.22;;;20.23
65316;BMP280;51920;53.952;10.292;2023-08-12T00:16:01;101348.47;;;20.34
65316;BMP280;51920;53.952;10.292;2023-08-12T00:18:28;101338.91;;;20.38
65316;BMP280;51920;53.952;10.292;2023-08-12T00:20:55;101335.34;;;20.25
65316;BMP280;51920;53.952;10.292;2023-08-12T00:23:22;101335.22;;;20.29
65316;BMP280;51920;53.952;10.292;2023-08-12T00:25:49;101337.03;;;20.48
65316;BMP280;51920;53.952;10.292;2023-08-12T00:28:16;101316.97;;;20.35
65316;BMP280;51920;53.952;10.292;2023-08-12T00:30:42;101338.81;;;20.42
65316;BMP280;51920;53.952;10.292;2023-08-12T00:33:09;101329.06;;;20.25
65316;BMP280;51920;53.952;10.292;2023-08-12T00:35:35;101321.44;;;20.16
65316;BMP280;51920;53.952;10.292;2023-08-12T00:38:02;101329.38;;;20.27
65316;BMP280;51920;53.952;10.292;2023-08-12T00:40:29;101325.28;;;20.18
65316;BMP280;51920;53.952;10.292;2023-08-12T00:42:55;101330.78;;;20.18
65316;BMP280;51920;53.952;10.292;2023-08-12T00:45:22;101326.84;;;20.20
65316;BMP280;51920;53.952;10.292;2023-08-12T00:47:49;101333.09;;;20.20
65316;BMP280;51920;53.952;10.292;2023-08-12T00:50:15;101331.78;;;20.12
65316;BMP280;51920;53.952;10.292;2023-08-12T00:52:42;101331.94;;;20.05
65316;BMP280;51920;53.952;10.292;2023-08-12T00:55:12;101328.28;;;19.95
65316;BMP280;51920;53.952;10.292;2023-08-12T00:57:39;101330.59;;;19.97
65316;BMP280;51920;53.952;10.292;2023-08-12T01:00:06;101326.75;;;19.94
65316;BMP280;51920;53.952;10.292;2023-08-12T01:02:34;101329.28;;;20.01
65316;BMP280;51920;53.952;10.292;2023-08-12T01:05:03;101319.69;;;19.93
65316;BMP280;51920;53.952;10.292;2023-08-12T01:07:30;101317.94;;;19.99
65316;BMP280;51920;53.952;10.292;2023-08-12T01:09:56;101315.88;;;20.03
65316;BMP280;51920;53.952;10.292;2023-08-12T01:12:29;101304.66;;;19.98
65316;BMP280;51920;53.952;10.292;2023-08-12T01:15:18;101276.81;;;19.79
65316;BMP280;51920;53.952;10.292;2023-08-12T01:17:53;101275.50;;;19.71
65316;BMP280;51920;53.952;10.292;2023-08-12T01:20:21;101292.13;;;19.80
65316;BMP280;51920;53.952;10.292;2023-08-12T01:22:57;101305.78;;;19.84
65316;BMP280;51920;53.952;10.292;2023-08-12T01:25:25;101312.63;;;19.92
65316;BMP280;51920;53.952;10.292;2023-08-12T01:27:52;101299.97;;;19.82
65316;BMP280;51920;53.952;10.292;2023-08-12T01:30:19;101275.72;;;19.60
65316;BMP280;51920;53.952;10.292;2023-08-12T01:32:49;101300.94;;;19.88
65316;BMP280;51920;53.952;10.292;2023-08-12T01:35:34;101287.06;;;19.79
65316;BMP280;51920;53.952;10.292;2023-08-12T01:38:03;101276.94;;;19.76
65316;BMP280;51920;53.952;10.292;2023-08-12T01:40:33;101292.22;;;19.77
65316;BMP280;51920;53.952;10.292;2023-08-12T01:43:02;101266.50;;;19.54
65316;BMP280;51920;53.952;10.292;2023-08-12T01:45:33;101262.56;;;19.55
65316;BMP280;51920;53.952;10.292;2023-08-12T01:48:01;101282.06;;;19.73
65316;BMP280;51920;53.952;10.292;2023-08-12T01:50:28;101243.28;;;19.39
65316;BMP280;51920;53.952;10.292;2023-08-12T01:52:54;101285.63;;;19.58
65316;BMP280;51920;53.952;10.292;2023-08-12T01:55:21;101276.97;;;19.43
65316;BMP280;51920;53.952;10.292;2023-08-12T01:57:48;101293.81;;;19.45
65316;BMP280;51920;53.952;10.292;2023-08-12T02:00:16;101288.16;;;19.36
65316;BMP280;51920;53.952;10.292;2023-08-12T02:02:43;101258.06;;;19.12
65316;BMP280;51920;53.952;10.292;2023-08-12T02:05:16;101265.63;;;19.24
65316;BMP280;51920;53.952;10.292;2023-08-12T02:07:46;101251.91;;;19.08
65316;BMP280;51920;53.952;10.292;2023-08-12T02:10:20;101248.38;;;19.08
65316;BMP280;51920;53.952;10.292;2023-08-12T02:12:59;101264.44;;;19.09
65316;BMP280;51920;53.952;10.292;2023-08-12T02:15:32;101263.75;;;19.05
65316;BMP280;51920;53.952;10.292;2023-08-12T02:18:01;101264.25;;;19.00
65316;BMP280;51920;53.952;10.292;2023-08-12T02:20:29;101248.34;;;18.91
65316;BMP280;51920;53.952;10.292;2023-08-12T02:23:00;101239.09;;;18.85
65316;BMP280;51920;53.952;10.292;2023-08-12T02:25:28;101236.00;;;18.83
65316;BMP280;51920;53.952;10.292;2023-08-12T02:27:58;101237.53;;;18.84
65316;BMP280;51920;53.952;10.292;2023-08-12T02:30:25;101248.19;;;18.98
65316;BMP280;51920;53.952;10.292;2023-08-12T02:32:55;101218.00;;;18.82
65316;BMP280;51920;53.952;10.292;2023-08-12T02:35:23;101223.31;;;18.89
65316;BMP280;51920;53.952;10.292;2023-08-12T02:37:54;101207.84;;;18.79
65316;BMP280;51920;53.952;10.292;2023-08-12T02:40:22;101215.31;;;18.78
65316;BMP280;51920;53.952;10.292;2023-08-12T02:42:49;101191.97;;;18.70
65316;BMP280;51920;53.952;10.292;2023-08-12T02:45:22;101193.94;;;18.70
65316;BMP280;51920;53.952;10.292;2023-08-12T02:47:49;101194.28;;;18.72
65316;BMP280;51920;53.952;10.292;2023-08-12T02:50:16;101195.09;;;18.72
65316;BMP280;51920;53.952;10.292;2023-08-12T02:52:43;101199.78;;;18.72
65316;BMP280;51920;53.952;10.292;2023-08-12T02:55:12;101203.38;;;18.69
65316;BMP280;51920;53.952;10.292;2023-08-12T02:57:40;101226.28;;;18.78
65316;BMP280;51920;53.952;10.292;2023-08-12T03:00:08;101232.66;;;18.92
65316;BMP280;51920;53.952;10.292;2023-08-12T03:02:35;101242.53;;;18.89
65316;BMP280;51920;53.952;10.292;2023-08-12T03:05:02;101245.44;;;18.82
65316;BMP280;51920;53.952;10.292;2023-08-12T03:07:29;101242.75;;;18.78
65316;BMP280;51920;53.952;10.292;2023-08-12T03:09:56;101246.69;;;18.77
65316;BMP280;51920;53.952;10.292;2023-08-12T03:12:22;101237.06;;;18.69
65316;BMP280;51920;53.952;10.292;2023-08-12T03:14:49;101242.56;;;18.69
65316;BMP280;51920;53.952;10.292;2023-08-12T03:17:16;101240.31;;;18.64
65316;BMP280;51920;53.952;10.292;2023-08-12T03:19:43;101248.31;;;18.58
65316;BMP280;51920;53.952;10.292;2023-08-12T03:22:09;101254.53;;;18.59
65316;BMP280;51920;53.952;10.292;2023-08-12T03:24:38;101247.53;;;18.58
65316;BMP280;51920;53.952;10.292;2023-08-12T03:27:04;101242.06;;;18.58
65316;BMP280;51920;53.952;10.292;2023-08-12T03:29:31;101245.97;;;18.57
65316;BMP280;51920;53.952;10.292;2023-08-12T03:31:59;101244.00;;;18.57
65316;BMP280;51920;53.952;10.292;2023-08-12T03:34:28;101260.03;;;18.59
65316;BMP280;51920;53.952;10.292;2023-08-12T03:36:56;101245.88;;;18.61
65316;BMP280;51920;53.952;10.292;2023-08-12T03:39:23;101253.03;;;18.58
65316;BMP280;51920;53.952;10.292;2023-08-12T03:41:50;101249.47;;;18.57
65316;BMP280;51920;53.952;10.292;2023-08-12T03:44:17;101240.47;;;18.57
65316;BMP280;51920;53.952;10.292;2023-08-12T03:46:44;101244.50;;;18.52
65316;BMP280;51920;53.952;10.292;2023-08-12T03:49:10;101242.94;;;18.51
65316;BMP280;51920;53.952;10.292;2023-08-12T03:51:38;101237.56;;;18.48
65316;BMP280;51920;53.952;10.292;2023-08-12T03:54:05;101239.53;;;18.47
65316;BMP280;51920;53.952;10.292;2023-08-12T03:56:32;101241.06;;;18.48
65316;BMP280;51920;53.952;10.292;2023-08-12T03:59:01;101246.97;;;18.47
65316;BMP280;51920;53.952;10.292;2023-08-12T04:01:28;101234.44;;;18.46
65316;BMP280;51920;53.952;10.292;2023-08-12T04:03:55;101234.44;;;18.46
65316;BMP280;51920;53.952;10.292;2023-08-12T04:06:22;101226.66;;;18.44
65316;BMP280;51920;53.952;10.292;2023-08-12T04:08:48;101226.22;;;18.46
65316;BMP280;51920;53.952;10.292;2023-08-12T04:11:15;101221.91;;;18.45
65316;BMP280;51920;53.952;10.292;2023-08-12T04:13:42;101218.00;;;18.46
65316;BMP280;51920;53.952;10.292;2023-08-12T04:16:11;101205.44;;;18.45
65316;BMP280;51920;53.952;10.292;2023-08-12T04:18:37;101203.16;;;18.43
65316;BMP280;51920;53.952;10.292;2023-08-12T04:21:04;101205.44;;;18.45
65316;BMP280;51920;53.952;10.292;2023-08-12T04:23:31;101202.72;;;18.45
65316;BMP280;51920;53.952;10.292;2023-08-12T04:25:58;101207.69;;;18.50
65316;BMP280;51920;53.952;10.292;2023-08-12T04:28:26;101214.75;;;18.51
65316;BMP280;51920;53.952;10.292;2023-08-12T04:30:53;101215.94;;;18.50
65316;BMP280;51920;53.952;10.292;2023-08-12T04:33:23;101227.25;;;18.52
65316;BMP280;51920;53.952;10.292;2023-08-12T04:35:49;101218.25;;;18.51
65316;BMP280;51920;53.952;10.292;2023-08-12T04:38:17;101219.03;;;18.52
65316;BMP280;51920;53.952;10.292;2023-08-12T04:40:46;101204.94;;;18.50
65316;BMP280;51920;53.952;10.292;2023-08-12T04:43:13;101206.53;;;18.51
65316;BMP280;51920;53.952;10.292;2023-08-12T04:45:40;101208.38;;;18.54
65316;BMP280;51920;53.952;10.292;2023-08-12T04:48:06;101206.44;;;18.54
65316;BMP280;51920;53.952;10.292;2023-08-12T04:50:34;101196.59;;;18.57
65316;BMP280;51920;53.952;10.292;2023-08-12T04:53:01;101206.00;;;18.56
65316;BMP280;51920;53.952;10.292;2023-08-12T04:55:28;101186.72;;;18.59
65316;BMP280;51920;53.952;10.292;2023-08-12T04:57:54;101183.94;;;18.63
65316;BMP280;51920;53.952;10.292;2023-08-12T05:00:22;101182.97;;;18.70
65316;BMP280;51920;53.952;10.292;2023-08-12T05:02:49;101178.63;;;18.72
65316;BMP280;51920;53.952;10.292;2023-08-12T05:05:16;101172.53;;;18.81
65316;BMP280;51920;53.952;10.292;2023-08-12T05:07:42;101188.81;;;18.88
65316;BMP280;51920;53.952;10.292;2023-08-12T05:10:11;101188.22;;;18.97
65316;BMP280;51920;53.952;10.292;2023-08-12T05:12:37;101182.13;;;19.06
65316;BMP280;51920;53.952;10.292;2023-08-12T05:15:05;101190.13;;;19.16
65316;BMP280;51920;53.952;10.292;2023-08-12T05:17:31;101190.94;;;19.30
65316;BMP280;51920;53.952;10.292;2023-08-12T05:19:58;101194.16;;;19.57
65316;BMP280;51920;53.952;10.292;2023-08-12T05:22:25;101191.66;;;19.63
65316;BMP280;51920;53.952;10.292;2023-08-12T05:24:51;101188.44;;;19.93
65316;BMP280;51920;53.952;10.292;2023-08-12T05:27:18;101194.56;;;20.14
65316;BMP280;51920;53.952;10.292;2023-08-12T05:29:45;101204.03;;;20.26
65316;BMP280;51920;53.952;10.292;2023-08-12T05:32:11;101202.06;;;20.39
65316;BMP280;51920;53.952;10.292;2023-08-12T05:34:38;101204.81;;;20.26
65316;BMP280;51920;53.952;10.292;2023-08-12T05:37:04;101202.69;;;20.17
65316;BMP280;51920;53.952;10.292;2023-08-12T05:39:31;101206.09;;;20.09
65316;BMP280;51920;53.952;10.292;2023-08-12T05:41:58;101206.53;;;20.07
65316;BMP280;51920;53.952;10.292;2023-08-12T05:44:24;101208.81;;;19.96
65316;BMP280;51920;53.952;10.292;2023-08-12T05:46:51;101216.25;;;19.83
65316;BMP280;51920;53.952;10.292;2023-08-12T05:49:17;101224.59;;;19.79
65316;BMP280;51920;53.952;10.292;2023-08-12T05:51:44;101219.84;;;19.80
65316;BMP280;51920;53.952;10.292;2023-08-12T05:54:10;101220.31;;;19.78
65316;BMP280;51920;53.952;10.292;2023-08-12T05:56:37;101218.00;;;19.77
65316;BMP280;51920;53.952;10.292;2023-08-12T05:59:04;101214.56;;;19.72
65316;BMP280;51920;53.952;10.292;2023-08-12T06:01:30;101217.22;;;19.76
65316;BMP280;51920;53.952;10.292;2023-08-12T06:03:57;101219.34;;;19.85
65316;BMP280;51920;53.952;10.292;2023-08-12T06:06:23;101222.34;;;19.90
65316;BMP280;51920;53.952;10.292;2023-08-12T06:08:50;101215.59;;;19.91
65316;BMP280;51920;53.952;10.292;2023-08-12T06:11:17;101216.75;;;19.94
65316;BMP280;51920;53.952;10.292;2023-08-12T06:13:43;101208.91;;;19.92
65316;BMP280;51920;53.952;10.292;2023-08-12T06:16:10;101212.13;;;19.91
65316;BMP280;51920;53.952;10.292;2023-08-12T06:18:37;101211.78;;;19.89
65316;BMP280;51920;53.952;10.292;2023-08-12T06:21:03;101215.56;;;19.79
65316;BMP280;51920;53.952;10.292;2023-08-12T06:23:30;101215.00;;;19.71
65316;BMP280;51920;53.952;10.292;2023-08-12T06:25:56;101216.09;;;19.73
65316;BMP280;51920;53.952;10.292;2023-08-12T06:28:23;101208.31;;;19.72
65316;BMP280;51920;53.952;10.292;2023-08-12T06:30:50;101215.13;;;19.67
65316;BMP280;51920;53.952;10.292;2023-08-12T06:33:17;101216.66;;;19.68
65316;BMP280;51920;53.952;10.292;2023-08-12T06:35:44;101219.03;;;19.66
65316;BMP280;51920;53.952;10.292;2023-08-12T06:38:11;101208.94;;;19.63
65316;BMP280;51920;53.952;10.292;2023-08-12T06:40:38;101212.44;;;19.64
65316;BMP280;51920;53.952;10.292;2023-08-12T06:43:04;101206.69;;;19.58
65316;BMP280;51920;53.952;10.292;2023-08-12T06:45:31;101207.00;;;19.60
65316;BMP280;51920;53.952;10.292;2023-08-12T06:47:58;101208.25;;;19.59
65316;BMP280;51920;53.952;10.292;2023-08-12T06:50:24;101202.09;;;19.55
65316;BMP280;51920;53.952;10.292;2023-08-12T06:52:51;101206.78;;;19.55
65316;BMP280;51920;53.952;10.292;2023-08-12T06:55:17;101210.66;;;19.57
65316;BMP280;51920;53.952;10.292;2023-08-12T06:57:44;101205.56;;;19.56
65316;BMP280;51920;53.952;10.292;2023-08-12T07:00:11;101207.00;;;19.60
65316;BMP280;51920;53.952;10.292;2023-08-12T07:02:39;101212.44;;;19.64
65316;BMP280;51920;53.952;10.292;2023-08-12T07:05:08;101214.22;;;19.70
65316;BMP280;51920;53.952;10.292;2023-08-12T07:07:35;101213.91;;;19.68
65316;BMP280;51920;53.952;10.292;2023-08-12T07:10:02;101204.44;;;19.69
65316;BMP280;51920;53.952;10.292;2023-08-12T07:12:29;101207.00;;;19.77
65316;BMP280;51920;53.952;10.292;2023-08-12T07:14:56;101201.63;;;19.73
65316;BMP280;51920;53.952;10.292;2023-08-12T07:17:23;101209.41;;;19.75
65316;BMP280;51920;53.952;10.292;2023-08-12T07:19:49;101196.84;;;19.73
65316;BMP280;51920;53.952;10.292;2023-08-12T07:22:16;101195.50;;;19.65
65316;BMP280;51920;53.952;10.292;2023-08-12T07:24:45;101192.44;;;19.63
65316;BMP280;51920;53.952;10.292;2023-08-12T07:27:12;101183.06;;;19.61
65316;BMP280;51920;53.952;10.292;2023-08-12T07:29:38;101177.88;;;19.50
65316;BMP280;51920;53.952;10.292;2023-08-12T07:32:05;101169.28;;;19.48
65316;BMP280;51920;53.952;10.292;2023-08-12T07:34:32;101166.19;;;19.46
65316;BMP280;51920;53.952;10.292;2023-08-12T07:36:58;101162.53;;;19.36
65316;BMP280;51920;53.952;10.292;2023-08-12T07:39:25;101165.59;;;19.38
65316;BMP280;51920;53.952;10.292;2023-08-12T07:41:51;101154.53;;;19.42
65316;BMP280;51920;53.952;10.292;2023-08-12T07:44:18;101147.47;;;19.41
65316;BMP280;51920;53.952;10.292;2023-08-12T07:46:45;101150.47;;;19.46
65316;BMP280;51920;53.952;10.292;2023-08-12T07:49:12;101143.44;;;19.45
65316;BMP280;51920;53.952;10.292;2023-08-12T07:51:38;101142.81;;;19.54
65316;BMP280;51920;53.952;10.292;2023-08-12T07:54:05;101135.56;;;19.60
65316;BMP280;51920;53.952;10.292;2023-08-12T07:56:32;101133.19;;;19.62
65316;BMP280;51920;53.952;10.292;2023-08-12T07:58:59;101136.28;;;19.64
65316;BMP280;51920;53.952;10.292;2023-08-12T08:01:25;101139.34;;;19.66
65316;BMP280;51920;53.952;10.292;2023-08-12T08:03:52;101136.63;;;19.79
65316;BMP280;51920;53.952;10.292;2023-08-12T08:06:19;101129.81;;;19.84
65316;BMP280;51920;53.952;10.292;2023-08-12T08:08:46;101128.19;;;19.99
65316;BMP280;51920;53.952;10.292;2023-08-12T08:11:12;101133.84;;;20.21
65316;BMP280;51920;53.952;10.292;2023-08-12T08:13:39;101132.50;;;20.51
65316;BMP280;51920;53.952;10.292;2023-08-12T08:16:05;101136.19;;;20.83
65316;BMP280;51920;53.952;10.292;2023-08-12T08:18:32;101146.50;;;21.04
65316;BMP280;51920;53.952;10.292;2023-08-12T08:20:59;101146.97;;;21.25
65316;BMP280;51920;53.952;10.292;2023-08-12T08:23:30;101143.38;;;21.37
65316;BMP280;51920;53.952;10.292;2023-08-12T08:25:57;101141.09;;;21.36
65316;BMP280;51920;53.952;10.292;2023-08-12T08:28:23;101145.53;;;21.55
65316;BMP280;51920;53.952;10.292;2023-08-12T08:30:50;101136.66;;;21.60
65316;BMP280;51920;53.952;10.292;2023-08-12T08:33:17;101140.63;;;21.59
65316;BMP280;51920;53.952;10.292;2023-08-12T08:35:43;101138.28;;;21.79
65316;BMP280;51920;53.952;10.292;2023-08-12T08:38:10;101132.06;;;21.88
65316;BMP280;51920;53.952;10.292;2023-08-12T08:40:37;101130.59;;;21.96
65316;BMP280;51920;53.952;10.292;2023-08-12T08:43:07;101136.97;;;21.93
65316;BMP280;51920;53.952;10.292;2023-08-12T08:45:34;101131.78;;;21.95
65316;BMP280;51920;53.952;10.292;2023-08-12T08:48:05;101133.41;;;22.15
65316;BMP280;51920;53.952;10.292;2023-08-12T08:50:33;101138.53;;;22.35
65316;BMP280;51920;53.952;10.292;2023-08-12T08:53:00;101141.50;;;22.59
65316;BMP280;51920;53.952;10.292;2023-08-12T08:55:28;101140.59;;;22.62
65316;BMP280;51920;53.952;10.292;2023-08-12T08:57:56;101138.78;;;22.86
65316;BMP280;51920;53.952;10.292;2023-08-12T09:03:19;101143.66;;;23.19
65316;BMP280;51920;53.952;10.292;2023-08-12T09:05:46;101120.97;;;22.96
65316;BMP280;51920;53.952;10.292;2023-08-12T09:08:19;101130.63;;;23.10
65316;BMP280;51920;53.952;10.292;2023-08-12T09:10:49;101145.38;;;23.16
65316;BMP280;51920;53.952;10.292;2023-08-12T09:13:16;101141.38;;;23.36
65316;BMP280;51920;53.952;10.292;2023-08-12T09:15:44;101147.19;;;23.29
65316;BMP280;51920;53.952;10.292;2023-08-12T09:18:11;101140.91;;;23.19
65316;BMP280;51920;53.952;10.292;2023-08-12T09:20:41;101114.81;;;22.92
65316;BMP280;51920;53.952;10.292;2023-08-12T09:23:10;101126.50;;;22.96
65316;BMP280;51920;53.952;10.292;2023-08-12T09:25:44;101138.16;;;23.01
65316;BMP280;51920;53.952;10.292;2023-08-12T09:28:11;101127.44;;;22.93
65316;BMP280;51920;53.952;10.292;2023-08-12T09:30:39;101122.94;;;22.87
65316;BMP280;51920;53.952;10.292;2023-08-12T09:33:08;101135.09;;;22.99
65316;BMP280;51920;53.952;10.292;2023-08-12T09:35:37;101130.00;;;23.06
65316;BMP280;51920;53.952;10.292;2023-08-12T09:38:06;101125.41;;;23.03
65316;BMP280;51920;53.952;10.292;2023-08-12T09:40:35;101120.31;;;23.29
65316;BMP280;51920;53.952;10.292;2023-08-12T09:43:02;101121.72;;;23.15
65316;BMP280;51920;53.952;10.292;2023-08-12T09:45:30;101116.03;;;23.10
65316;BMP280;51920;53.952;10.292;2023-08-12T09:47:57;101120.06;;;23.09
65316;BMP280;51920;53.952;10.292;2023-08-12T09:50:27;101122.50;;;23.16
65316;BMP280;51920;53.952;10.292;2023-08-12T09:52:55;101115.91;;;23.04
65316;BMP280;51920;53.952;10.292;2023-08-12T09:55:24;101125.28;;;23.16
65316;BMP280;51920;53.952;10.292;2023-08-12T09:57:52;101115.88;;;23.13
65316;BMP280;51920;53.952;10.292;2023-08-12T10:00:20;101117.28;;;23.00
65316;BMP280;51920;53.952;10.292;2023-08-12T10:02:49;101111.94;;;23.05
65316;BMP280;51920;53.952;10.292;2023-08-12T10:05:22;101114.63;;;23.33
65316;BMP280;51920;53.952;10.292;2023-08-12T10:07:48;101108.91;;;23.46
65316;BMP280;51920;53.952;10.292;2023-08-12T10:10:16;101123.81;;;23.57
65316;BMP280;51920;53.952;10.292;2023-08-12T10:12:43;101119.66;;;23.53
65316;BMP280;51920;53.952;10.292;2023-08-12T10:15:10;101116.88;;;23.53
65316;BMP280;51920;53.952;10.292;2023-08-12T10:17:38;101094.38;;;23.27
65316;BMP280;51920;53.952;10.292;2023-08-12T10:20:10;101104.91;;;23.56
65316;BMP280;51920;53.952;10.292;2023-08-12T10:22:39;101110.41;;;23.65
65316;BMP280;51920;53.952;10.292;2023-08-12T10:25:07;101099.66;;;23.58
65316;BMP280;51920;53.952;10.292;2023-08-12T10:27:36;101091.31;;;23.76
65316;BMP280;51920;53.952;10.292;2023-08-12T10:30:07;101097.44;;;24.13
65316;BMP280;51920;53.952;10.292;2023-08-12T10:32:37;101094.94;;;24.39
65316;BMP280;51920;53.952;10.292;2023-08-12T10:35:04;101102.25;;;24.52
65316;BMP280;51920;53.952;10.292;2023-08-12T10:37:32;101107.19;;;24.48
65316;BMP280;51920;53.952;10.292;2023-08-12T10:40:04;101100.75;;;24.18
65316;BMP280;51920;53.952;10.292;2023-08-12T10:42:47;101091.91;;;24.13
65316;BMP280;51920;53.952;10.292;2023-08-12T10:45:16;101075.31;;;23.80
65316;BMP280;51920;53.952;10.292;2023-08-12T10:50:19;101073.06;;;23.70
65316;BMP280;51920;53.952;10.292;2023-08-12T10:52:46;101080.94;;;23.62
65316;BMP280;51920;53.952;10.292;2023-08-12T10:55:18;101080.44;;;23.73
65316;BMP280;51920;53.952;10.292;2023-08-12T10:57:45;101078.97;;;23.86
65316;BMP280;51920;53.952;10.292;2023-08-12T11:00:18;101062.22;;;23.81
65316;BMP280;51920;53.952;10.292;2023-08-12T11:02:46;101059.00;;;23.82
65316;BMP280;51920;53.952;10.292;2023-08-12T11:05:14;101072.31;;;23.93
65316;BMP280;51920;53.952;10.292;2023-08-12T11:07:43;101074.28;;;24.02
65316;BMP280;51920;53.952;10.292;2023-08-12T11:12:48;101065.41;;;23.88
65316;BMP280;51920;53.952;10.292;2023-08-12T11:15:15;101064.97;;;23.81
65316;BMP280;51920;53.952;10.292;2023-08-12T11:17:42;101072.13;;;23.97
65316;BMP280;51920;53.952;10.292;2023-08-12T11:20:11;101064.06;;;23.84
65316;BMP280;51920;53.952;10.292;2023-08-12T11:22:40;101072.19;;;23.87
65316;BMP280;51920;53.952;10.292;2023-08-12T11:25:09;101069.44;;;23.87
65316;BMP280;51920;53.952;10.292;2023-08-12T11:27:38;101066.72;;;23.78
65316;BMP280;51920;53.952;10.292;2023-08-12T11:30:05;101067.47;;;23.79
65316;BMP280;51920;53.952;10.292;2023-08-12T11:32:32;101059.69;;;23.68
65316;BMP280;51920;53.952;10.292;2023-08-12T11:34:59;101057.44;;;23.57
65316;BMP280;51920;53.952;10.292;2023-08-12T11:37:26;101053.00;;;23.51
65316;BMP280;51920;53.952;10.292;2023-08-12T11:39:53;101051.00;;;23.42
65316;BMP280;51920;53.952;10.292;2023-08-12T11:42:19;101022.50;;;23.27
65316;BMP280;51920;53.952;10.292;2023-08-12T11:44:46;101043.56;;;23.15
65316;BMP280;51920;53.952;10.292;2023-08-12T11:47:13;101031.91;;;23.11
65316;BMP280;51920;53.952;10.292;2023-08-12T11:49:39;101035.00;;;23.04
65316;BMP280;51920;53.952;10.292;2023-08-12T11:52:09;101042.06;;;22.95
65316;BMP280;51920;53.952;10.292;2023-08-12T11:54:36;101035.81;;;22.86
65316;BMP280;51920;53.952;10.292;2023-08-12T11:57:03;101033.63;;;22.71
65316;BMP280;51920;53.952;10.292;2023-08-12T11:59:30;101035.81;;;22.67
65316;BMP280;51920;53.952;10.292;2023-08-12T12:01:57;101035.19;;;22.54
65316;BMP280;51920;53.952;10.292;2023-08-12T12:04:24;101037.66;;;22.52
65316;BMP280;51920;53.952;10.292;2023-08-12T12:06:51;101024.13;;;22.36
65316;BMP280;51920;53.952;10.292;2023-08-12T12:09:17;101021.97;;;22.31
65316;BMP280;51920;53.952;10.292;2023-08-12T12:11:44;101009.72;;;22.22
65316;BMP280;51920;53.952;10.292;2023-08-12T12:14:11;101018.78;;;22.32
65316;BMP280;51920;53.952;10.292;2023-08-12T12:16:43;101025.38;;;22.35
65316;BMP280;51920;53.952;10.292;2023-08-12T12:19:20;101018.47;;;22.39
65316;BMP280;51920;53.952;10.292;2023-08-12T12:21:50;101023.97;;;22.39
65316;BMP280;51920;53.952;10.292;2023-08-12T12:24:18;101011.56;;;22.35
65316;BMP280;51920;53.952;10.292;2023-08-12T12:26:46;101020.28;;;22.33
65316;BMP280;51920;53.952;10.292;2023-08-12T12:29:16;101010.47;;;22.23
65316;BMP280;51920;53.952;10.292;2023-08-12T12:31:42;101017.50;;;22.15
65316;BMP280;51920;53.952;10.292;2023-08-12T12:34:09;101024.88;;;22.18
65316;BMP280;51920;53.952;10.292;2023-08-12T12:36:37;101039.88;;;22.08
65316;BMP280;51920;53.952;10.292;2023-08-12T12:39:05;101039.41;;;22.00
65316;BMP280;51920;53.952;10.292;2023-08-12T12:41:32;101039.84;;;21.98
65316;BMP280;51920;53.952;10.292;2023-08-12T12:44:00;101022.19;;;21.87
65316;BMP280;51920;53.952;10.292;2023-08-12T12:46:29;101026.31;;;21.82
65316;BMP280;51920;53.952;10.292;2023-08-12T12:48:56;101007.25;;;21.66
65316;BMP280;51920;53.952;10.292;2023-08-12T12:51:23;101006.97;;;21.64
65316;BMP280;51920;53.952;10.292;2023-08-12T12:53:49;101006.56;;;21.43
65316;BMP280;51920;53.952;10.292;2023-08-12T12:56:16;100997.00;;;21.35
65316;BMP280;51920;53.952;10.292;2023-08-12T12:58:43;100989.13;;;21.24
65316;BMP280;51920;53.952;10.292;2023-08-12T13:01:09;100983.63;;;21.24
65316;BMP280;51920;53.952;10.292;2023-08-12T13:03:36;100979.47;;;21.20
65316;BMP280;51920;53.952;10.292;2023-08-12T13:06:04;100947.59;;;21.09
65316;BMP280;51920;53.952;10.292;2023-08-12T13:08:31;100977.03;;;21.22
65316;BMP280;51920;53.952;10.292;2023-08-12T13:10:58;100958.28;;;21.07
65316;BMP280;51920;53.952;10.292;2023-08-12T13:13:25;100967.22;;;21.21
65316;BMP280;51920;53.952;10.292;2023-08-12T13:15:51;100963.53;;;21.15
65316;BMP280;51920;53.952;10.292;2023-08-12T13:18:18;100952.63;;;21.11
65316;BMP280;51920;53.952;10.292;2023-08-12T13:20:45;100943.56;;;21.01
65316;BMP280;51920;53.952;10.292;2023-08-12T13:23:12;100960.91;;;21.11
65316;BMP280;51920;53.952;10.292;2023-08-12T13:25:38;100944.38;;;21.11
65316;BMP280;51920;53.952;10.292;2023-08-12T13:28:05;100945.75;;;21.16
65316;BMP280;51920;53.952;10.292;2023-08-12T13:30:32;100953.16;;;21.19
65316;BMP280;51920;53.952;10.292;2023-08-12T13:32:58;100962.69;;;21.27
65316;BMP280;51920;53.952;10.292;2023-08-12T13:35:26;100945.75;;;21.16
65316;BMP280;51920;53.952;10.292;2023-08-12T13:37:53;100952.09;;;21.25
65316;BMP280;51920;53.952;10.292;2023-08-12T13:40:20;100949.53;;;21.31
65316;BMP280;51920;53.952;10.292;2023-08-12T13:42:47;100942.78;;;21.32
65316;BMP280;51920;53.952;10.292;2023-08-12T13:45:14;100948.66;;;21.43
65316;BMP280;51920;53.952;10.292;2023-08-12T13:47:41;100942.25;;;21.46
65316;BMP280;51920;53.952;10.292;2023-08-12T13:50:08;100923.72;;;21.47
65316;BMP280;51920;53.952;10.292;2023-08-12T13:52:34;100934.59;;;21.50
65316;BMP280;51920;53.952;10.292;2023-08-12T13:55:01;100939.25;;;21.72